Flight Track Log - Related Links

Times and Time Zones

All times are in EDT time to prevent confusion due to time zone crossing. See the N84NG flight status page for this flight to view local times or setup timezone preferences in your user account.

Time Position Orientation Groundspeed Altitude Reporting Facility
EDT Latitude Longitude Course Direction KTS MPH feet Rate Location/Type
Mon 11:27:13 AM 33.6333 -111.9000 345° North 191 220 2,600  Level Phoenix TRACON
Mon 11:28:02 AM 33.6833 -111.9167 344° North 254 292 5,000 1,982 Climbing Phoenix TRACON
Mon 11:29:02 AM 33.7333 -111.9500 331° Northwest 257 296 6,200 1,714 Climbing Phoenix TRACON
Mon 11:30:08 AM 33.7500 -111.8500 79° East 284 327 8,600 2,132 Climbing Phoenix TRACON
Mon 11:31:03 AM 33.7333 -111.7667 104° East 318 366 10,500 2,296 Climbing Phoenix TRACON
Mon 11:32:03 AM 33.7333 -111.6500 90° East 351 404 13,000 2,383 Climbing Phoenix TRACON
Mon 11:33:24 AM 33.7131 -111.5008 99° East 365 420 16,100 2,098 Climbing Albuquerque Center
Mon 11:34:26 AM 33.6994 -111.3736 97° East 383 441 18,000 2,081 Climbing Albuquerque Center
Mon 11:35:28 AM 33.7097 -111.2144 86° East 403 464 20,400 2,129 Climbing Albuquerque Center
Mon 11:36:30 AM 33.7536 -111.0858 68° East 415 478 22,400 1,935 Climbing Albuquerque Center
Mon 11:37:32 AM 33.7994 -110.9553 67° East 424 488 24,400 1,935 Climbing Albuquerque Center
Mon 11:38:34 AM 33.8461 -110.8228 67° East 430 495 26,400 1,935 Climbing Albuquerque Center
Mon 11:39:36 AM 33.8808 -110.6833 73° East 440 506 28,400 1,790 Climbing Albuquerque Center
Mon 11:40:38 AM 33.9114 -110.5114 78° East 439 505 30,100 1,366 Climbing Albuquerque Center
Mon 11:41:39 AM 33.9381 -110.3575 78° East 450 518 31,200 1,024 Climbing Albuquerque Center
Mon 11:42:41 AM 33.9667 -110.2008 78° East 469 540 32,200 968 Climbing Albuquerque Center
Mon 11:43:43 AM 33.9961 -110.0417 77° East 481 554 33,200 968 Climbing Albuquerque Center
Mon 11:44:45 AM 34.0269 -109.8728 78° East 488 562 34,200 919 Climbing Albuquerque Center
Mon 11:45:47 AM 34.0536 -109.7181 78° East 492 566 35,100 823 Climbing Albuquerque Center
Mon 11:46:49 AM 34.0850 -109.5344 78° East 498 573 35,900 677 Climbing Albuquerque Center
Mon 11:47:51 AM 34.1108 -109.3869 78° East 502 578 36,500 726 Climbing Albuquerque Center
Mon 11:48:53 AM 34.1456 -109.1831 78° East 511 588 37,400 726 Climbing Albuquerque Center
Mon 11:49:55 AM 34.1725 -109.0231 78° East 516 594 38,000 528 Climbing Albuquerque Center
Mon 11:50:58 AM 34.2053 -108.8314 78° East 520 598 38,500 432 Climbing Albuquerque Center
Mon 11:52:00 AM 34.2339 -108.6656 78° East 524 603 38,900 242 Climbing Albuquerque Center
Mon 11:53:02 AM 34.2658 -108.4664 79° East 533 613 39,000 48 Climbing Albuquerque Center
Mon 11:54:04 AM 34.2928 -108.3022 79° East 544 626 39,000  Level Albuquerque Center
Mon 11:55:06 AM 34.3231 -108.1172 79° East 556 640 39,000  Level Albuquerque Center
Mon 11:56:08 AM 34.3586 -107.8922 79° East 567 652 39,000  Level Albuquerque Center
Mon 11:57:10 AM 34.3872 -107.7019 80° East 573 659 39,000  Level Albuquerque Center
Mon 11:58:12 AM 34.4156 -107.5125 80° East 576 663 39,000  Level Albuquerque Center
Mon 11:59:14 AM 34.4453 -107.3250 79° East 573 659 39,000  Level Albuquerque Center
Mon 12:00:16 PM 34.4803 -107.1089 79° East 571 657 39,000  Level Albuquerque Center
Mon 12:01:18 PM 34.5119 -106.9044 79° East 573 659 39,000  Level Albuquerque Center
Mon 12:02:20 PM 34.5397 -106.7119 80° East 581 669 39,000  Level Albuquerque Center
Mon 12:03:22 PM 34.5661 -106.5269 80° East 584 672 39,000  Level Albuquerque Center
Mon 12:04:24 PM 34.5964 -106.3211 80° East 579 666 39,000  Level Albuquerque Center
Mon 12:05:26 PM 34.6239 -106.1267 80° East 584 672 39,000  Level Albuquerque Center
Mon 12:06:28 PM 34.6525 -105.9319 80° East 588 677 39,000  Level Albuquerque Center
Mon 12:07:30 PM 34.6836 -105.7083 80° East 577 664 39,000  Level Albuquerque Center
Mon 12:08:32 PM 34.7103 -105.5125 81° East 582 670 39,000  Level Albuquerque Center
Mon 12:09:34 PM 34.7372 -105.3156 80° East 584 672 39,000  Level Albuquerque Center
Mon 12:10:36 PM 34.7639 -105.1194 81° East 586 674 39,000  Level Albuquerque Center
Mon 12:11:38 PM 34.7894 -104.9239 81° East 584 672 39,000  Level Albuquerque Center
Mon 12:13:00 PM 34.8054 -104.7074 85° East  Level FlightAware Approximate
Mon 12:13:43 PM 34.8450 -104.5022 85° East 580 667 39,000  Level Albuquerque Center
Mon 12:14:44 PM 34.8706 -104.3078 81° East 581 669 39,000  Level Albuquerque Center
Mon 12:15:47 PM 34.8944 -104.1153 81° East 579 666 39,000  Level Albuquerque Center
Mon 12:16:49 PM 34.9189 -103.9222 81° East 578 665 39,000  Level Albuquerque Center
Mon 12:17:51 PM 34.9436 -103.7306 81° East 575 662 39,000  Level Albuquerque Center
Mon 12:18:53 PM 34.9711 -103.5056 81° East 574 661 39,000  Level Albuquerque Center
Mon 12:19:55 PM 34.9936 -103.3122 82° East 574 661 39,000  Level Albuquerque Center
Mon 12:20:57 PM 35.0172 -103.1194 81° East 572 658 39,000  Level Albuquerque Center
Mon 12:21:59 PM 35.0386 -102.9317 82° East 569 655 39,000  Level Albuquerque Center
Mon 12:23:01 PM 35.0603 -102.7394 82° East 572 658 39,000  Level Albuquerque Center
Mon 12:24:03 PM 35.0817 -102.5489 82° East 569 655 39,000  Level Albuquerque Center
Mon 12:25:05 PM 35.1069 -102.3189 82° East 571 657 39,000  Level Albuquerque Center
Mon 12:26:07 PM 35.1294 -102.1281 82° East 571 657 39,000  Level Albuquerque Center
Mon 12:27:09 PM 35.1522 -101.9286 82° East 573 659 39,000  Level Albuquerque Center
Mon 12:28:11 PM 35.1719 -101.7347 83° East 572 658 39,000  Level Albuquerque Center
Mon 12:29:13 PM 35.1931 -101.5403 82° East 570 656 39,000  Level Albuquerque Center
Mon 12:30:15 PM 35.2119 -101.3500 83° East 566 651 39,000  Level Albuquerque Center
Mon 12:31:17 PM 35.2328 -101.1514 83° East 565 650 39,000  Level Albuquerque Center
Mon 12:32:19 PM 35.2522 -100.9622 83° East 564 649 39,000  Level Albuquerque Center
Mon 12:33:21 PM 35.2706 -100.7736 83° East 563 648 39,000  Level Albuquerque Center
Mon 12:34:23 PM 35.2922 -100.5522 83° East 561 646 39,000  Level Albuquerque Center
Mon 12:35:25 PM 35.3086 -100.3617 84° East 562 647 39,000  Level Albuquerque Center
Mon 12:36:27 PM 35.3353 -100.1753 80° East 560 644 39,000  Level Albuquerque Center
Mon 12:37:29 PM 35.3525 -99.9861 84° East 559 643 39,000 -97 Level Albuquerque Center
Mon 12:38:31 PM 35.3728 -99.7989 82° East 557 641 38,800 -823 Descending Albuquerque Center
Mon 12:39:33 PM 35.4278 -99.6217 69° East 559 643 37,300 -1,632 Descending Albuquerque Center
Mon 12:40:36 PM 35.4911 -99.4189 69° East 539 620 35,400 -1,872 Descending Albuquerque Center
Mon 12:41:38 PM 35.5236 -99.2497 77° East 517 595 33,400 -1,935 Descending Albuquerque Center
Mon 12:42:40 PM 35.5450 -99.0831 81° East 504 580 31,400 -1,935 Descending Albuquerque Center
Mon 12:43:42 PM 35.5650 -98.9181 81° East 496 571 29,400 -1,935 Descending Albuquerque Center
Mon 12:44:44 PM 35.5861 -98.7592 81° East 482 555 27,400 -2,057 Descending Albuquerque Center
Mon 12:46:02 PM 35.6117 -98.5419 82° East 471 542 24,600 -2,154 Descending Fort Worth Center
Mon 12:46:41 PM 35.6231 -98.4325 83° East 453 521 23,200 -2,100 Descending Fort Worth Center
Mon 12:47:02 PM 35.6319 -98.3789 78° East 456 525 22,500 -2,182 Descending Fort Worth Center
Mon 12:47:36 PM 35.6408 -98.2972 82° East 429 494 21,200 -2,300 Descending Fort Worth Center
Mon 12:48:02 PM 35.6475 -98.2361 82° East 433 498 20,200 -2,361 Descending Fort Worth Center
Mon 12:48:37 PM 35.6542 -98.1644 83° East 390 449 18,800 -2,400 Descending Fort Worth Center
Mon 12:49:02 PM 35.6628 -98.1033 80° East 411 473 17,800 -2,273 Descending Fort Worth Center
Mon 12:49:43 PM 35.6444 -98.0342 108° East 352 405 16,300 -2,500 Descending Fort Worth Center
Mon 12:50:02 PM 35.6281 -98.0008 121° Southeast 335 386 15,300 -2,557 Descending Fort Worth Center
Mon 12:50:44 PM 35.5928 -97.9444 128° Southeast 285 328 13,700 -2,400 Descending Fort Worth Center
Mon 12:51:02 PM 35.5803 -97.9214 124° Southeast 296 341 12,900 -2,462 Descending Fort Worth Center
Mon 12:52:02 PM 35.5369 -97.8447 125° Southeast 291 335 10,500 -2,330 Descending Fort Worth Center
Mon 12:52:45 PM 35.5558 -97.7911 67° East 269 310 8,900 -2,400 Descending Fort Worth Center
Mon 12:53:02 PM 35.5786 -97.7861 10° North 205 236 8,100 -2,459 Descending Fort Worth Center
Mon 12:53:46 PM 35.6289 -97.7789 North 262 302 6,400 -2,400 Descending Fort Worth Center
Mon 12:54:02 PM 35.6497 -97.7764 North 180 207 5,700 -2,100 Descending Fort Worth Center
Mon 12:54:46 PM 35.6831 -97.7381 43° Northeast 258 297 4,300 -2,000 Descending Fort Worth Center
Mon 12:55:02 PM 35.6956 -97.7153 56° Northeast 208 239 3,700 -1,418 Descending Fort Worth Center
Mon 12:55:41 PM 35.7144 -97.6744 60° Northeast 228 262 3,000 -700 Descending Fort Worth Center
Mon 12:56:02 PM 35.7064 -97.6539 116° Southeast 183 211 3,000  Level Fort Worth Center
Mon 12:56:41 PM 35.6792 -97.6461 167° South 143 165 3,000  Level Fort Worth Center
Mon 12:57:02 PM 35.6644 -97.6486 188° South 98 113 3,000  Level Fort Worth Center
Mon 12:57:42 PM 35.6375 -97.6486 180° South 146 168 3,000 -200 Level Fort Worth Center
Mon 12:58:02 PM 35.6269 -97.6486 180° South 103 119 2,800 -492 Descending Fort Worth Center
Mon 12:58:43 PM 35.6061 -97.6483 179° South 108 124 2,500 -500 Descending Fort Worth Center
Mon 12:59:02 PM 35.5958 -97.6483 180° South 115 132 2,300 -600 Descending Fort Worth Center
Mon 12:59:43 PM 35.5750 -97.6483 180° South 107 123 1,900 -600 Descending Fort Worth Center
Mon 01:00:02 PM 35.5644 -97.6483 180° South 115 132 1,700 -304 Descending Fort Worth Center
Mon 01:01:02 PM 35.5353 -97.6483 180° South 115 132 1,500 -200 Descending Fort Worth Center

Login

Don't have an account? Register now (free) for customized features, flight alerts, and more!